PWSweather.com
Personal Weather Stations
Station Observations
IHTIMAN1
Neighbourhood 1, IhtimanBG 2050

Neighbourhood 1IhtimanBG 2050

Lat: 42.436852, Lon: 23.817921

Elevation: 2066

Station Type: Oregon Scientific WMR968

http://ihtiman-meteo.com

High Low Average
Temperature 64.8°F18.2°C 46.2°F7.9°C 53.7°F12.1°C
Dew Point 58.2°F14.6°C 45.7°F7.6°C 50.9°F10.5°C
Winds 9.2 mph 14.8 kmh Calm Calm 2.0 mph S3.2 kmh S
Wind Gusts 12.7 mph20.4 kmh -- 3.0 mph4.8 kmh
Humidity 98% 62% 91%
Pressure 29.97 in1014.9 mb 29.82 in1009.8 mb -
Precipitation 0.09 in2.3 mm - -
Hour Temp Dew Point Humidity Winds Wind Gusts Pressure Precip Precip Rate Daily Precip Total
12:00 AM 50.9°F10.5°C 50.4°F10.2°C 98% Calm Calm -- 29.88 in1011.9 mb - 0.00 in0.0 mm 0.00 in0.0 mm
12:10 AM 51.4°F10.8°C 50.9°F10.5°C 98% 3.5 mph S5.6 kmh S 4.6 mph7.4 kmh 29.88 in1011.9 mb - 0.00 in0.0 mm 0.00 in0.0 mm
12:20 AM 51.4°F10.8°C 50.9°F10.5°C 98% 1.2 mph S1.9 kmh S 3.5 mph5.6 kmh 29.88 in1011.9 mb - 0.00 in0.0 mm 0.00 in0.0 mm
12:30 AM 51.6°F10.9°C 51.1°F10.6°C 98% Calm Calm -- 29.88 in1011.9 mb - 0.00 in0.0 mm 0.00 in0.0 mm
12:40 AM 51.6°F10.9°C 51.1°F10.6°C 98% 1.2 mph S1.9 kmh S 3.5 mph5.6 kmh 29.88 in1011.9 mb - 0.00 in0.0 mm 0.00 in0.0 mm
12:50 AM 51.6°F10.9°C 51.1°F10.6°C 98% Calm Calm -- 29.88 in1011.9 mb - 0.00 in0.0 mm 0.00 in0.0 mm
01:00 AM 51.8°F11.0°C 51.3°F10.7°C 98% Calm Calm -- 29.88 in1011.9 mb - 0.00 in0.0 mm 0.00 in0.0 mm
01:10 AM 52.0°F11.1°C 51.4°F10.8°C 98% 3.5 mph N5.6 kmh N 3.5 mph5.6 kmh 29.88 in1011.9 mb - 0.00 in0.0 mm 0.00 in0.0 mm
01:20 AM 51.7°F10.9°C 51.2°F10.7°C 98% Calm Calm -- 29.86 in1011.2 mb - 0.00 in0.0 mm 0.00 in0.0 mm
01:30 AM 51.6°F10.9°C 51.1°F10.6°C 98% Calm Calm -- 29.86 in1011.2 mb - 0.00 in0.0 mm 0.00 in0.0 mm
01:40 AM 51.4°F10.8°C 50.9°F10.5°C 98% 3.5 mph WSW5.6 kmh WSW 5.8 mph9.3 kmh 29.86 in1011.2 mb - 0.00 in0.0 mm 0.00 in0.0 mm
01:50 AM 50.7°F10.4°C 50.2°F10.1°C 98% Calm Calm -- 29.86 in1011.2 mb - 0.00 in0.0 mm 0.00 in0.0 mm
02:00 AM 50.2°F10.1°C 49.6°F9.8°C 98% Calm Calm -- 29.86 in1011.2 mb - 0.00 in0.0 mm 0.00 in0.0 mm
02:10 AM 49.6°F9.8°C 49.1°F9.5°C 98% Calm Calm -- 29.86 in1011.2 mb - 0.00 in0.0 mm 0.00 in0.0 mm
02:20 AM 49.3°F9.6°C 48.7°F9.3°C 98% Calm Calm 3.5 mph5.6 kmh 29.86 in1011.2 mb - 0.00 in0.0 mm 0.00 in0.0 mm
02:30 AM 49.1°F9.5°C 48.6°F9.2°C 98% Calm Calm -- 29.84 in1010.5 mb - 0.00 in0.0 mm 0.00 in0.0 mm
02:40 AM 48.8°F9.3°C 48.3°F9.1°C 98% Calm Calm -- 29.82 in1009.8 mb - 0.00 in0.0 mm 0.00 in0.0 mm
02:50 AM 48.7°F9.3°C 48.2°F9.0°C 98% Calm Calm -- 29.82 in1009.8 mb - 0.00 in0.0 mm 0.00 in0.0 mm
03:00 AM 48.4°F9.1°C 47.8°F8.8°C 98% Calm Calm -- 29.82 in1009.8 mb - 0.00 in0.0 mm 0.00 in0.0 mm
03:10 AM 48.1°F8.9°C 47.5°F8.6°C 98% Calm Calm -- 29.82 in1009.8 mb - 0.00 in0.0 mm 0.00 in0.0 mm
03:20 AM 47.5°F8.6°C 46.9°F8.3°C 98% Calm Calm -- 29.82 in1009.8 mb - 0.00 in0.0 mm 0.00 in0.0 mm
03:30 AM 46.8°F8.2°C 46.3°F7.9°C 98% Calm Calm -- 29.82 in1009.8 mb - 0.00 in0.0 mm 0.00 in0.0 mm
03:40 AM 46.4°F8.0°C 45.9°F7.7°C 98% Calm Calm -- 29.82 in1009.8 mb - 0.00 in0.0 mm 0.00 in0.0 mm
03:50 AM 46.2°F7.9°C 45.7°F7.6°C 98% Calm Calm -- 29.82 in1009.8 mb - 0.00 in0.0 mm 0.00 in0.0 mm
04:00 AM 46.2°F7.9°C 45.7°F7.6°C 98% Calm Calm -- 29.82 in1009.8 mb - 0.00 in0.0 mm 0.00 in0.0 mm
04:10 AM 46.6°F8.1°C 46.0°F7.8°C 98% Calm Calm -- 29.82 in1009.8 mb - 0.00 in0.0 mm 0.00 in0.0 mm
04:20 AM 46.9°F8.3°C 46.4°F8.0°C 98% Calm Calm -- 29.82 in1009.8 mb - 0.00 in0.0 mm 0.00 in0.0 mm
04:30 AM 46.9°F8.3°C 46.4°F8.0°C 98% Calm Calm -- 29.82 in1009.8 mb - 0.00 in0.0 mm 0.00 in0.0 mm
04:40 AM 46.8°F8.2°C 46.2°F7.9°C 98% Calm Calm 2.3 mph3.7 kmh 29.82 in1009.8 mb - 0.00 in0.0 mm 0.00 in0.0 mm
04:50 AM 47.1°F8.4°C 46.6°F8.1°C 98% Calm Calm 3.5 mph5.6 kmh 29.82 in1009.8 mb - 0.00 in0.0 mm 0.00 in0.0 mm
05:00 AM 47.0°F8.3°C 46.5°F8.1°C 98% Calm Calm -- 29.86 in1011.2 mb - 0.00 in0.0 mm 0.00 in0.0 mm
05:10 AM 46.8°F8.2°C 46.2°F7.9°C 98% Calm Calm -- 29.86 in1011.2 mb - 0.00 in0.0 mm 0.00 in0.0 mm
05:20 AM 47.4°F8.6°C 46.9°F8.3°C 98% Calm Calm -- 29.86 in1011.2 mb - 0.00 in0.0 mm 0.00 in0.0 mm
05:30 AM 48.2°F9.0°C 47.7°F8.7°C 98% Calm Calm -- 29.86 in1011.2 mb - 0.00 in0.0 mm 0.00 in0.0 mm
05:40 AM 48.7°F9.3°C 48.1°F8.9°C 98% Calm Calm -- 29.86 in1011.2 mb - 0.00 in0.0 mm 0.00 in0.0 mm
05:50 AM 49.8°F9.9°C 49.3°F9.6°C 98% Calm Calm 3.5 mph5.6 kmh 29.86 in1011.2 mb - 0.00 in0.0 mm 0.00 in0.0 mm
06:00 AM 51.0°F10.6°C 50.5°F10.3°C 98% Calm Calm 3.5 mph5.6 kmh 29.86 in1011.2 mb - 0.05 in1.3 mm 0.05 in1.3 mm
06:10 AM 51.4°F10.8°C 50.9°F10.5°C 98% Calm Calm -- 29.86 in1011.2 mb - 0.09 in2.3 mm 0.09 in2.3 mm
06:20 AM 51.6°F10.9°C 51.1°F10.6°C 98% Calm Calm -- 29.86 in1011.2 mb - 0.09 in2.3 mm 0.09 in2.3 mm
06:30 AM 51.7°F10.9°C 51.1°F10.6°C 98% Calm Calm -- 29.86 in1011.2 mb - 0.09 in2.3 mm 0.09 in2.3 mm
06:40 AM 51.6°F10.9°C 51.1°F10.6°C 98% Calm Calm -- 29.86 in1011.2 mb - 0.09 in2.3 mm 0.09 in2.3 mm
06:50 AM 51.6°F10.9°C 51.1°F10.6°C 98% Calm Calm -- 29.86 in1011.2 mb - 0.09 in2.3 mm 0.09 in2.3 mm
07:00 AM 51.4°F10.8°C 50.9°F10.5°C 98% Calm Calm 3.5 mph5.6 kmh 29.82 in1009.8 mb - 0.05 in1.3 mm 0.09 in2.3 mm
07:10 AM 50.9°F10.5°C 50.4°F10.2°C 98% Calm Calm -- 29.82 in1009.8 mb - 0.00 in0.0 mm 0.09 in2.3 mm
07:20 AM 50.5°F10.3°C 50.0°F10.0°C 98% Calm Calm -- 29.82 in1009.8 mb - 0.00 in0.0 mm 0.09 in2.3 mm
07:30 AM 50.2°F10.1°C 49.6°F9.8°C 98% Calm Calm -- 29.86 in1011.2 mb - 0.00 in0.0 mm 0.09 in2.3 mm
07:40 AM 50.4°F10.2°C 49.8°F9.9°C 98% Calm Calm -- 29.86 in1011.2 mb - 0.00 in0.0 mm 0.09 in2.3 mm
07:50 AM 50.9°F10.5°C 50.4°F10.2°C 98% Calm Calm -- 29.82 in1009.8 mb - 0.00 in0.0 mm 0.09 in2.3 mm
08:00 AM 51.5°F10.8°C 51.0°F10.6°C 98% Calm Calm -- 29.86 in1011.2 mb - 0.00 in0.0 mm 0.09 in2.3 mm
08:10 AM 52.3°F11.3°C 51.8°F11.0°C 98% Calm Calm 2.3 mph3.7 kmh 29.86 in1011.2 mb - 0.00 in0.0 mm 0.09 in2.3 mm
08:20 AM 53.0°F11.7°C 52.5°F11.4°C 98% 1.2 mph S1.9 kmh S 3.5 mph5.6 kmh 29.82 in1009.8 mb - 0.00 in0.0 mm 0.09 in2.3 mm
08:30 AM 54.0°F12.2°C 53.4°F11.9°C 98% Calm Calm -- 29.86 in1011.2 mb - 0.00 in0.0 mm 0.09 in2.3 mm
08:40 AM 54.1°F12.3°C 53.5°F11.9°C 98% Calm Calm -- 29.86 in1011.2 mb - 0.00 in0.0 mm 0.09 in2.3 mm
08:50 AM 54.3°F12.4°C 53.8°F12.1°C 98% 3.5 mph SE5.6 kmh SE 4.6 mph7.4 kmh 29.86 in1011.2 mb - 0.00 in0.0 mm 0.09 in2.3 mm
09:00 AM 54.7°F12.6°C 54.1°F12.3°C 98% 5.8 mph SE9.3 kmh SE 8.1 mph13.0 kmh 29.86 in1011.2 mb - 0.00 in0.0 mm 0.09 in2.3 mm
09:10 AM 55.1°F12.8°C 54.5°F12.5°C 98% 8.1 mph SE13.0 kmh SE 11.5 mph18.5 kmh 29.86 in1011.2 mb - 0.00 in0.0 mm 0.09 in2.3 mm
09:20 AM 55.6°F13.1°C 55.0°F12.8°C 98% 4.6 mph E7.4 kmh E 8.1 mph13.0 kmh 29.86 in1011.2 mb - 0.00 in0.0 mm 0.09 in2.3 mm
09:30 AM 55.8°F13.2°C 55.2°F12.9°C 98% 3.5 mph E5.6 kmh E 6.9 mph11.1 kmh 29.86 in1011.2 mb - 0.00 in0.0 mm 0.09 in2.3 mm
09:40 AM 56.1°F13.4°C 55.6°F13.1°C 98% 2.3 mph ESE3.7 kmh ESE 4.6 mph7.4 kmh 29.86 in1011.2 mb - 0.00 in0.0 mm 0.09 in2.3 mm
09:50 AM 56.4°F13.6°C 55.9°F13.3°C 98% 3.5 mph SE5.6 kmh SE 5.8 mph9.3 kmh 29.86 in1011.2 mb - 0.00 in0.0 mm 0.09 in2.3 mm
10:00 AM 57.4°F14.1°C 56.8°F13.8°C 98% 5.8 mph S9.3 kmh S 8.1 mph13.0 kmh 29.86 in1011.2 mb - 0.00 in0.0 mm 0.09 in2.3 mm
10:10 AM 57.7°F14.3°C 57.2°F14.0°C 98% 3.5 mph SSE5.6 kmh SSE 9.2 mph14.8 kmh 29.86 in1011.2 mb - 0.00 in0.0 mm 0.09 in2.3 mm
10:20 AM 58.5°F14.7°C 58.0°F14.4°C 98% 5.8 mph SE9.3 kmh SE 9.2 mph14.8 kmh 29.86 in1011.2 mb - 0.00 in0.0 mm 0.09 in2.3 mm
10:30 AM 58.7°F14.8°C 58.2°F14.6°C 98% 3.5 mph SSE5.6 kmh SSE 5.8 mph9.3 kmh 29.86 in1011.2 mb - 0.00 in0.0 mm 0.09 in2.3 mm
10:40 AM 59.4°F15.2°C 57.7°F14.3°C 94% 4.6 mph SE7.4 kmh SE 5.8 mph9.3 kmh 29.86 in1011.2 mb - 0.00 in0.0 mm 0.09 in2.3 mm
10:50 AM 59.3°F15.2°C 56.4°F13.6°C 90% 5.8 mph SE9.3 kmh SE 5.8 mph9.3 kmh 29.86 in1011.2 mb - 0.00 in0.0 mm 0.09 in2.3 mm
11:00 AM 60.4°F15.8°C 57.2°F14.0°C 89% 5.8 mph SE9.3 kmh SE 8.1 mph13.0 kmh 29.86 in1011.2 mb - 0.00 in0.0 mm 0.09 in2.3 mm
11:10 AM 60.4°F15.8°C 55.9°F13.3°C 85% 5.8 mph SE9.3 kmh SE 9.2 mph14.8 kmh 29.86 in1011.2 mb - 0.00 in0.0 mm 0.09 in2.3 mm
11:20 AM 59.9°F15.5°C 54.7°F12.6°C 83% 6.9 mph SE11.1 kmh SE 10.4 mph16.7 kmh 29.86 in1011.2 mb - 0.00 in0.0 mm 0.09 in2.3 mm
11:30 AM 59.7°F15.4°C 54.9°F12.7°C 84% 5.8 mph ESE9.3 kmh ESE 11.5 mph18.5 kmh 29.86 in1011.2 mb - 0.00 in0.0 mm 0.09 in2.3 mm
11:40 AM 60.1°F15.6°C 54.9°F12.7°C 83% 6.9 mph SE11.1 kmh SE 12.7 mph20.4 kmh 29.86 in1011.2 mb - 0.00 in0.0 mm 0.09 in2.3 mm
11:50 AM 59.4°F15.2°C 54.2°F12.3°C 83% 5.8 mph E9.3 kmh E 12.7 mph20.4 kmh 29.86 in1011.2 mb - 0.00 in0.0 mm 0.09 in2.3 mm
12:00 PM 59.2°F15.1°C 54.0°F12.2°C 83% 4.6 mph SSE7.4 kmh SSE 5.8 mph9.3 kmh 29.86 in1011.2 mb - 0.00 in0.0 mm 0.09 in2.3 mm
12:10 PM 59.2°F15.1°C 54.0°F12.2°C 83% 4.6 mph SE7.4 kmh SE 8.1 mph13.0 kmh 29.86 in1011.2 mb - 0.00 in0.0 mm 0.09 in2.3 mm
12:20 PM 59.2°F15.1°C 54.0°F12.2°C 83% 5.8 mph SE9.3 kmh SE 11.5 mph18.5 kmh 29.86 in1011.2 mb - 0.00 in0.0 mm 0.09 in2.3 mm
12:30 PM 58.8°F14.9°C 53.7°F12.1°C 83% 8.1 mph SE13.0 kmh SE 12.7 mph20.4 kmh 29.86 in1011.2 mb - 0.00 in0.0 mm 0.09 in2.3 mm
12:40 PM 58.5°F14.7°C 53.6°F12.0°C 84% 6.9 mph SE11.1 kmh SE 10.4 mph16.7 kmh 29.86 in1011.2 mb - 0.00 in0.0 mm 0.09 in2.3 mm
12:50 PM 59.1°F15.1°C 53.9°F12.2°C 83% 9.2 mph SE14.8 kmh SE 12.7 mph20.4 kmh 29.86 in1011.2 mb - 0.00 in0.0 mm 0.09 in2.3 mm
01:10 PM 59.4°F15.2°C 53.9°F12.2°C 82% 4.6 mph SE7.4 kmh SE 10.4 mph16.7 kmh 29.82 in1009.8 mb - 0.00 in0.0 mm 0.09 in2.3 mm
01:20 PM 59.1°F15.1°C 53.6°F12.0°C 82% 6.9 mph SE11.1 kmh SE 10.4 mph16.7 kmh 29.82 in1009.8 mb - 0.00 in0.0 mm 0.09 in2.3 mm
01:30 PM 59.0°F15.0°C 53.8°F12.1°C 83% 6.9 mph SSE11.1 kmh SSE 8.1 mph13.0 kmh 29.82 in1009.8 mb - 0.00 in0.0 mm 0.09 in2.3 mm
01:40 PM 59.2°F15.1°C 53.7°F12.1°C 82% 4.6 mph E7.4 kmh E 8.1 mph13.0 kmh 29.82 in1009.8 mb - 0.00 in0.0 mm 0.09 in2.3 mm
01:50 PM 59.5°F15.3°C 53.0°F11.7°C 79% 6.9 mph SE11.1 kmh SE 9.2 mph14.8 kmh 29.82 in1009.8 mb - 0.00 in0.0 mm 0.09 in2.3 mm
02:00 PM 60.4°F15.8°C 52.1°F11.2°C 74% 6.9 mph SE11.1 kmh SE 11.5 mph18.5 kmh 29.82 in1009.8 mb - 0.00 in0.0 mm 0.09 in2.3 mm
02:10 PM 60.8°F16.0°C 51.0°F10.6°C 70% 8.1 mph ESE13.0 kmh ESE 11.5 mph18.5 kmh 29.82 in1009.8 mb - 0.00 in0.0 mm 0.09 in2.3 mm
02:20 PM 61.2°F16.2°C 51.3°F10.7°C 70% 6.9 mph SE11.1 kmh SE 10.4 mph16.7 kmh 29.82 in1009.8 mb - 0.00 in0.0 mm 0.09 in2.3 mm
02:30 PM 61.9°F16.6°C 52.0°F11.1°C 70% 6.9 mph E11.1 kmh E 12.7 mph20.4 kmh 29.82 in1009.8 mb - 0.00 in0.0 mm 0.09 in2.3 mm
02:40 PM 63.5°F17.5°C 52.3°F11.3°C 67% 5.8 mph SE9.3 kmh SE 8.1 mph13.0 kmh 29.82 in1009.8 mb - 0.00 in0.0 mm 0.09 in2.3 mm
02:50 PM 62.5°F16.9°C 51.4°F10.8°C 67% 6.9 mph SSE11.1 kmh SSE 10.4 mph16.7 kmh 29.82 in1009.8 mb - 0.00 in0.0 mm 0.09 in2.3 mm
03:00 PM 62.4°F16.9°C 51.3°F10.7°C 67% 6.9 mph SE11.1 kmh SE 8.1 mph13.0 kmh 29.82 in1009.8 mb - 0.00 in0.0 mm 0.09 in2.3 mm
03:10 PM 64.8°F18.2°C 51.4°F10.8°C 62% 8.1 mph ESE13.0 kmh ESE 12.7 mph20.4 kmh 29.82 in1009.8 mb - 0.00 in0.0 mm 0.09 in2.3 mm
03:20 PM 63.9°F17.7°C 51.0°F10.6°C 63% 6.9 mph SE11.1 kmh SE 12.7 mph20.4 kmh 29.82 in1009.8 mb - 0.00 in0.0 mm 0.09 in2.3 mm
03:30 PM 64.2°F17.9°C 51.7°F10.9°C 64% 5.8 mph SE9.3 kmh SE 10.4 mph16.7 kmh 29.82 in1009.8 mb - 0.00 in0.0 mm 0.09 in2.3 mm
03:40 PM 63.7°F17.6°C 51.3°F10.7°C 64% 4.6 mph E7.4 kmh E 8.1 mph13.0 kmh 29.82 in1009.8 mb - 0.00 in0.0 mm 0.09 in2.3 mm
03:50 PM 63.4°F17.4°C 50.6°F10.3°C 63% 4.6 mph ESE7.4 kmh ESE 5.8 mph9.3 kmh 29.82 in1009.8 mb - 0.00 in0.0 mm 0.09 in2.3 mm
04:00 PM 62.0°F16.7°C 50.1°F10.1°C 65% 3.5 mph ESE5.6 kmh ESE 4.6 mph7.4 kmh 29.82 in1009.8 mb - 0.00 in0.0 mm 0.09 in2.3 mm
04:10 PM 61.7°F16.5°C 51.0°F10.6°C 68% 4.6 mph SSE7.4 kmh SSE 5.8 mph9.3 kmh 29.82 in1009.8 mb - 0.00 in0.0 mm 0.09 in2.3 mm
04:20 PM 61.0°F16.1°C 50.0°F10.0°C 67% 5.8 mph SE9.3 kmh SE 8.1 mph13.0 kmh 29.82 in1009.8 mb - 0.00 in0.0 mm 0.09 in2.3 mm
04:30 PM 60.0°F15.6°C 49.8°F9.9°C 69% 5.8 mph SE9.3 kmh SE 9.2 mph14.8 kmh 29.82 in1009.8 mb - 0.00 in0.0 mm 0.09 in2.3 mm
04:40 PM 59.2°F15.1°C 50.1°F10.1°C 72% 2.3 mph SSE3.7 kmh SSE 3.5 mph5.6 kmh 29.82 in1009.8 mb - 0.00 in0.0 mm 0.09 in2.3 mm
04:50 PM 58.3°F14.6°C 51.1°F10.6°C 77% 3.5 mph SE5.6 kmh SE 5.8 mph9.3 kmh 29.82 in1009.8 mb - 0.00 in0.0 mm 0.09 in2.3 mm
05:00 PM 57.9°F14.4°C 51.8°F11.0°C 80% Calm Calm -- 29.82 in1009.8 mb - 0.00 in0.0 mm 0.09 in2.3 mm
05:10 PM 57.9°F14.4°C 52.5°F11.4°C 82% 2.3 mph SSE3.7 kmh SSE 4.6 mph7.4 kmh 29.82 in1009.8 mb - 0.00 in0.0 mm 0.09 in2.3 mm
05:20 PM 57.7°F14.3°C 52.6°F11.4°C 83% 2.3 mph E3.7 kmh E 5.8 mph9.3 kmh 29.86 in1011.2 mb - 0.00 in0.0 mm 0.09 in2.3 mm
05:30 PM 57.6°F14.2°C 53.1°F11.7°C 85% Calm Calm -- 29.86 in1011.2 mb - 0.00 in0.0 mm 0.09 in2.3 mm
05:40 PM 57.2°F14.0°C 53.0°F11.7°C 86% Calm Calm -- 29.86 in1011.2 mb - 0.00 in0.0 mm 0.09 in2.3 mm
05:50 PM 56.8°F13.8°C 53.0°F11.7°C 87% Calm Calm -- 29.88 in1011.9 mb - 0.00 in0.0 mm 0.09 in2.3 mm
06:00 PM 56.7°F13.7°C 53.1°F11.7°C 88% Calm Calm -- 29.88 in1011.9 mb - 0.00 in0.0 mm 0.09 in2.3 mm
06:10 PM 56.4°F13.6°C 53.2°F11.8°C 89% Calm Calm -- 29.88 in1011.9 mb - 0.00 in0.0 mm 0.09 in2.3 mm
06:20 PM 56.0°F13.3°C 52.8°F11.6°C 89% Calm Calm -- 29.88 in1011.9 mb - 0.00 in0.0 mm 0.09 in2.3 mm
06:30 PM 55.6°F13.1°C 52.7°F11.5°C 90% Calm Calm -- 29.91 in1012.9 mb - 0.00 in0.0 mm 0.09 in2.3 mm
06:40 PM 55.2°F12.9°C 52.3°F11.3°C 90% Calm Calm -- 29.91 in1012.9 mb - 0.00 in0.0 mm 0.09 in2.3 mm
06:50 PM 54.2°F12.3°C 51.4°F10.8°C 90% Calm Calm -- 29.88 in1011.9 mb - 0.00 in0.0 mm 0.09 in2.3 mm
07:00 PM 53.4°F11.9°C 50.9°F10.5°C 91% Calm Calm -- 29.91 in1012.9 mb - 0.00 in0.0 mm 0.09 in2.3 mm
07:10 PM 53.1°F11.7°C 50.5°F10.3°C 91% Calm Calm 2.3 mph3.7 kmh 29.91 in1012.9 mb - 0.00 in0.0 mm 0.09 in2.3 mm
07:20 PM 52.7°F11.5°C 50.1°F10.1°C 91% Calm Calm -- 29.91 in1012.9 mb - 0.00 in0.0 mm 0.09 in2.3 mm
07:30 PM 52.2°F11.2°C 49.6°F9.8°C 91% Calm Calm -- 29.91 in1012.9 mb - 0.00 in0.0 mm 0.09 in2.3 mm
07:40 PM 51.4°F10.8°C 49.2°F9.6°C 92% Calm Calm -- 29.91 in1012.9 mb - 0.00 in0.0 mm 0.09 in2.3 mm
07:50 PM 51.1°F10.6°C 48.8°F9.3°C 92% Calm Calm -- 29.91 in1012.9 mb - 0.00 in0.0 mm 0.09 in2.3 mm
08:00 PM 50.7°F10.4°C 48.8°F9.3°C 93% Calm Calm -- 29.94 in1013.9 mb - 0.00 in0.0 mm 0.09 in2.3 mm
08:10 PM 50.5°F10.3°C 48.6°F9.2°C 93% Calm Calm -- 29.94 in1013.9 mb - 0.00 in0.0 mm 0.09 in2.3 mm
08:20 PM 50.5°F10.3°C 48.9°F9.4°C 94% Calm Calm -- 29.94 in1013.9 mb - 0.00 in0.0 mm 0.09 in2.3 mm
08:30 PM 50.2°F10.1°C 48.6°F9.2°C 94% Calm Calm -- 29.92 in1013.2 mb - 0.00 in0.0 mm 0.09 in2.3 mm
08:40 PM 49.9°F9.9°C 48.5°F9.2°C 95% 2.3 mph SW3.7 kmh SW 2.3 mph3.7 kmh 29.91 in1012.9 mb - 0.00 in0.0 mm 0.09 in2.3 mm
08:50 PM 49.2°F9.6°C 47.8°F8.8°C 95% Calm Calm -- 29.94 in1013.9 mb - 0.00 in0.0 mm 0.09 in2.3 mm
09:00 PM 48.7°F9.3°C 47.4°F8.6°C 95% Calm Calm -- 29.94 in1013.9 mb - 0.00 in0.0 mm 0.09 in2.3 mm
09:10 PM 48.4°F9.1°C 47.0°F8.3°C 95% Calm Calm 3.5 mph5.6 kmh 29.94 in1013.9 mb - 0.00 in0.0 mm 0.09 in2.3 mm
09:20 PM 48.4°F9.1°C 47.0°F8.3°C 95% Calm Calm -- 29.94 in1013.9 mb - 0.00 in0.0 mm 0.09 in2.3 mm
09:30 PM 48.5°F9.2°C 47.4°F8.6°C 96% 1.2 mph E1.9 kmh E 3.5 mph5.6 kmh 29.94 in1013.9 mb - 0.00 in0.0 mm 0.09 in2.3 mm
09:40 PM 48.6°F9.2°C 47.5°F8.6°C 96% Calm Calm -- 29.94 in1013.9 mb - 0.00 in0.0 mm 0.09 in2.3 mm
09:50 PM 48.6°F9.2°C 47.7°F8.7°C 97% Calm Calm -- 29.94 in1013.9 mb - 0.00 in0.0 mm 0.09 in2.3 mm
10:00 PM 48.6°F9.2°C 47.8°F8.8°C 97% Calm Calm 2.3 mph3.7 kmh 29.94 in1013.9 mb - 0.00 in0.0 mm 0.09 in2.3 mm
10:10 PM 47.9°F8.8°C 47.4°F8.6°C 98% Calm Calm -- 29.94 in1013.9 mb - 0.00 in0.0 mm 0.09 in2.3 mm
10:20 PM 47.9°F8.8°C 47.4°F8.6°C 98% Calm Calm -- 29.97 in1014.9 mb - 0.00 in0.0 mm 0.09 in2.3 mm
10:30 PM 48.2°F9.0°C 47.7°F8.7°C 98% Calm Calm -- 29.97 in1014.9 mb - 0.00 in0.0 mm 0.09 in2.3 mm
10:40 PM 48.6°F9.2°C 48.0°F8.9°C 98% Calm Calm -- 29.97 in1014.9 mb - 0.00 in0.0 mm 0.09 in2.3 mm
10:50 PM 48.9°F9.4°C 48.4°F9.1°C 98% Calm Calm -- 29.97 in1014.9 mb - 0.00 in0.0 mm 0.09 in2.3 mm
11:00 PM 49.2°F9.6°C 48.7°F9.3°C 98% Calm Calm -- 29.94 in1013.9 mb - 0.00 in0.0 mm 0.09 in2.3 mm
11:10 PM 49.5°F9.7°C 48.9°F9.4°C 98% Calm Calm -- 29.94 in1013.9 mb - 0.00 in0.0 mm 0.09 in2.3 mm
11:20 PM 49.6°F9.8°C 49.1°F9.5°C 98% Calm Calm -- 29.94 in1013.9 mb - 0.00 in0.0 mm 0.09 in2.3 mm
11:30 PM 49.6°F9.8°C 49.1°F9.5°C 98% Calm Calm -- 29.97 in1014.9 mb - 0.00 in0.0 mm 0.09 in2.3 mm
11:40 PM 49.5°F9.7°C 48.9°F9.4°C 98% Calm Calm -- 29.97 in1014.9 mb - 0.00 in0.0 mm 0.09 in2.3 mm
11:50 PM 49.3°F9.6°C 48.7°F9.3°C 98% Calm Calm -- 29.97 in1014.9 mb - 0.00 in0.0 mm 0.09 in2.3 mm